Portada
METAR-TAF:

METAR-TAF

Aeropuertos :

Madrid, España

Aeropuerto de Madrid-Barajas

latitud: 40-27N, longitud: 003-33W, altitud: 609 m

Observación

El informe se hizo hace 26 minutos, a las 08:00 UTC
Viento 1 kt con dirección variable
Temperatura 2°C
Humedad 80%
Presión 1019 hPa
Visibilidad 10 km o más
Cielo cubierto a una altura de 7000 ft

METAR: LEMD 230800Z VRB01KT 9999 OVC070 02/M01 Q1019 NOSIG

Hora: 09:26 (08:26 UTC)

Pronóstico

El informe se hizo hace 2 horas y 55 minutos, a las 05:31 UTC
Pronóstico válido del 23 a las 06 UTC al 24 a las 12 UTC
Viento 5 kt con dirección variable
Visibilidad 10 km o más
Nubes dispersas a una altura de 4000 ft

TAF: LEMD 230531Z 2306/2412 VRB05KT 9999 SCT040 TX10/2315Z TNM03/2406Z

Observaciones y pronósticos meteorológicos de más de 4000 aeropuertos (mensajes METAR y TAF).

Los puntos amarillos y rojos representan las estaciones disponibles.

Ponga el ratón en el punto deseado para ver el nombre de la estación.

Haga clic para ver las observaciones y los pronósticos meteorológicos.

Para cambiar el mapa : haga clic en los botones verdes con una cruz de color negro para hacer un zoom, en el botón verde con un guión para alejar o en las flechas verdes para mapas adyacentes.


METAR-TAF: